Hauptseite
METAR-TAF:

METAR-TAF

Flughäfen :

Avignon, Frankreich

Flughafen Avignon

Breite: 43-54-26N, Länge: 004-54-07E, Höhe: 38 m

Beobachtung

Neuester Wetterbericht von vor 40 Minuten, um 14:30 UTC
Wind 12 kt aus Nord
Temperatur 14°C
Luftfeuchtigkeit 44%
Luftdruck 1015 hPa
Sichtweite 10 km oder mehr
keine Wolken unter 1500 m und keine Kumulonimbus oder Gewitterwolken

METAR: LFMV 191430Z AUTO 01012KT CAVOK 14/02 Q1015 NOSIG

Zeit: 16:10 (15:10 UTC)

Prognose

Neuester Wetterbericht von vor 1 Stunde und 10 Minuten, um 14:00 UTC
Gültige Prognose vom 19 um 15 UTC bis 20 um 15 UTC
Wind 10 kt aus Nord/Nordwest
Sichtweite 10 km oder mehr
keine Wolken unter 1500 m und keine Kumulonimbus oder Gewitterwolken
Übergehend zu
vom 20 um 06 UTC bis 20 um 08 UTC
Durchbrochene Bewölkung in der Höhe von 2000 ft

TAF: LFMV 191400Z 1915/2015 34010KT CAVOK BECMG 2006/2008 BKN020

Wetterbeobachtungen und Prognosen von mehr als 4000 Flughäfen (METAR und TAF Bericht).

Die verfügbaren Stationen werden durch gelbe und rote Markierungen auf der Karte dargestellt.

Führen Sie die Maus auf sie, um den Namen der Station zu sehen.

Darauf klicken, um die Beobachtung von Wetterbeobachtungen und Prognosen zu sehen.

Um die Karte zu ändern : klicken Sie auf den grünen Tasten mit einem schwarzen Kreuz Zum Vergrößern, auf den grünen Button mit einem Gedankenstrich zu verkleinern, oder auf die grünen Pfeile für benachbarte Karten.


METAR-TAF: